Time;durP1;ratioP1;P1;durP2;ratioP2;P2;SDS_P1;SDS_P2;PMS_P1;PMS_P2;Temp;Humidity;BMP_temperature;BMP_pressure;BME280_temperature;BME280_humidity;BME280_pressure;Samples;Min_cycle;Max_cycle;Signal;HPM_P1;HPM_P2
2022/07/27 03:23:29;;;;;;;7.47;5.43;;;;;;;24.66;44.30;94628.25;5063682;28;20055;-76
2022/07/27 03:25:55;;;;;;;7.63;5.82;;;;;;;24.56;43.90;94613.59;5002626;28;20548;-58
2022/07/27 03:28:20;;;;;;;9.63;6.70;;;;;;;24.61;44.07;94618.19;5005549;28;20092;-58
2022/07/27 03:30:46;;;;;;;7.95;5.90;;;;;;;24.61;44.05;94607.28;5006214;28;20488;-59
2022/07/27 03:33:11;;;;;;;8.60;6.00;;;;;;;24.68;44.00;94620.25;5005615;28;20029;-58
2022/07/27 03:35:37;;;;;;;10.75;6.55;;;;;;;24.73;44.06;94633.09;5038111;28;20033;-58
2022/07/27 03:38:02;;;;;;;8.48;6.30;;;;;;;24.67;43.99;94629.75;5005909;28;20112;-59
2022/07/27 03:40:30;;;;;;;8.75;7.20;;;;;;;24.73;45.21;94630.38;5006363;28;20041;-59
2022/07/27 03:42:56;;;;;;;12.75;7.68;;;;;;;24.72;45.86;94617.97;5005111;28;20512;-58
2022/07/27 03:45:21;;;;;;;11.38;8.32;;;;;;;24.64;46.51;94608.94;5005663;28;20026;-59
2022/07/27 03:47:47;;;;;;;11.00;7.88;;;;;;;24.59;46.73;94620.72;5005306;28;20049;-59
2022/07/27 03:50:12;;;;;;;10.77;7.95;;;;;;;24.57;46.86;94629.44;5005910;28;20034;-58
2022/07/27 03:52:38;;;;;;;10.50;7.47;;;;;;;24.56;47.56;94633.41;5005353;28;20038;-58
2022/07/27 03:55:04;;;;;;;10.27;7.60;;;;;;;24.61;47.33;94637.31;5005925;28;20861;-59
2022/07/27 03:57:29;;;;;;;12.73;8.70;;;;;;;24.51;47.59;94619.88;5005020;28;20038;-59
2022/07/27 03:59:54;;;;;;;11.85;8.70;;;;;;;24.48;48.01;94627.13;5005608;28;20096;-58
2022/07/27 04:02:20;;;;;;;10.27;8.25;;;;;;;24.54;48.02;94632.47;5004950;28;20034;-58
2022/07/27 04:04:45;;;;;;;12.45;7.93;;;;;;;24.50;48.42;94640.97;5005630;28;20038;-59
2022/07/27 04:07:11;;;;;;;12.05;7.20;;;;;;;24.42;48.23;94633.94;5004803;28;20500;-58
2022/07/27 04:09:37;;;;;;;10.00;7.43;;;;;;;24.37;48.39;94626.59;5003380;28;20037;-59
2022/07/27 04:12:03;;;;;;;10.10;8.00;;;;;;;24.46;47.76;94642.56;5005143;28;20049;-58
2022/07/27 04:14:29;;;;;;;10.10;7.32;;;;;;;24.41;48.22;94630.47;5005406;28;20044;-58
2022/07/27 04:16:54;;;;;;;9.98;6.60;;;;;;;24.53;47.71;94639.22;5004557;28;20038;-58
2022/07/27 04:19:20;;;;;;;11.63;6.70;;;;;;;24.53;47.63;94639.22;4991740;28;20100;-58
2022/07/27 04:21:45;;;;;;;9.48;6.60;;;;;;;24.59;47.52;94642.56;4995751;28;20034;-59
2022/07/27 04:24:11;;;;;;;10.68;6.03;;;;;;;24.56;47.47;94638.16;5004618;28;20565;-60
2022/07/27 04:26:36;;;;;;;9.70;6.38;;;;;;;24.65;47.29;94645.91;5004703;28;20038;-61
2022/07/27 04:29:02;;;;;;;8.57;5.63;;;;;;;24.74;47.71;94653.66;5005044;28;20045;-60
2022/07/27 04:31:27;;;;;;;9.93;6.20;;;;;;;24.77;47.75;94641.69;5004147;28;20041;-60
2022/07/27 04:33:53;;;;;;;11.82;5.90;;;;;;;24.82;47.79;94650.50;5003529;28;20042;-60
2022/07/27 04:36:18;;;;;;;10.70;5.68;;;;;;;24.87;48.10;94641.47;5004408;28;20552;-60
2022/07/27 04:38:44;;;;;;;8.85;5.55;;;;;;;24.98;48.25;94649.44;5004401;28;20670;-60
2022/07/27 04:41:09;;;;;;;15.85;5.85;;;;;;;24.98;47.94;94643.97;5004178;28;20111;-59
2022/07/27 04:43:35;;;;;;;9.57;5.70;;;;;;;25.07;48.24;94635.38;5003520;28;20424;-60
2022/07/27 04:46:03;;;;;;;9.98;5.38;;;;;;;25.22;48.38;94665.59;5003198;28;20130;-60
2022/07/27 04:48:31;;;;;;;7.88;6.20;;;;;;;25.30;48.19;94663.69;5002524;28;20053;-59
2022/07/27 04:50:57;;;;;;;10.90;6.20;;;;;;;25.50;47.86;94668.44;5004156;28;20034;-60
2022/07/27 04:53:22;;;;;;;14.50;6.60;;;;;;;25.59;47.76;94670.72;5004167;28;20042;-60
2022/07/27 04:55:47;;;;;;;9.98;5.78;;;;;;;25.71;47.57;94666.50;5004279;28;20030;-60
2022/07/27 04:58:13;;;;;;;12.25;5.55;;;;;;;25.87;47.30;94675.06;5007121;28;20468;-60
2022/07/27 05:00:39;;;;;;;9.77;5.13;;;;;;;25.99;47.11;94687.22;4995423;28;20096;-59
2022/07/27 05:03:04;;;;;;;13.88;6.00;;;;;;;26.08;47.60;94686.72;4987765;28;20030;-60
2022/07/27 05:05:31;;;;;;;10.43;6.43;;;;;;;26.28;47.36;94686.03;4988560;28;20022;-62
2022/07/27 05:07:57;;;;;;;10.10;5.45;;;;;;;26.39;47.07;94685.72;4993674;28;20032;-62
2022/07/27 05:10:22;;;;;;;6.53;5.47;;;;;;;26.51;46.83;94686.91;4994293;28;20064;-62
2022/07/27 05:12:48;;;;;;;8.45;5.47;;;;;;;26.59;46.71;94687.69;4990295;28;20073;-62
2022/07/27 05:15:15;;;;;;;10.05;5.57;;;;;;;26.73;46.80;94691.81;4993534;28;20545;-63
2022/07/27 05:17:40;;;;;;;10.38;5.55;;;;;;;26.77;46.52;94681.97;4987498;28;20034;-60
2022/07/27 05:20:07;;;;;;;11.00;5.95;;;;;;;26.86;46.45;94684.19;4988591;28;20149;-61
2022/07/27 05:22:32;;;;;;;14.73;6.40;;;;;;;26.98;46.16;94697.09;5003185;28;20033;-64
2022/07/27 05:24:58;;;;;;;14.90;7.85;;;;;;;27.04;46.56;94692.19;4994056;28;20050;-66
2022/07/27 05:27:23;;;;;;;11.73;6.63;;;;;;;27.25;46.33;94692.84;4987813;28;20054;-62
2022/07/27 05:29:49;;;;;;;13.05;5.85;;;;;;;27.27;46.58;94684.81;4988370;28;20027;-66
2022/07/27 05:32:14;;;;;;;12.05;6.13;;;;;;;27.36;45.97;94684.28;4988081;28;20189;-66
2022/07/27 05:34:40;;;;;;;12.25;6.15;;;;;;;27.31;46.73;94691.41;4993183;28;20034;-61
2022/07/27 05:37:06;;;;;;;11.65;6.88;;;;;;;27.49;46.97;94695.13;4987700;28;20523;-62
2022/07/27 05:39:32;;;;;;;11.13;6.15;;;;;;;27.55;46.40;94695.69;4990070;28;20557;-62
2022/07/27 05:41:57;;;;;;;14.70;6.97;;;;;;;27.60;45.51;94683.84;4996740;28;20117;-63
2022/07/27 05:44:23;;;;;;;13.85;5.93;;;;;;;27.67;45.51;94694.09;4995499;28;20051;-61
2022/07/27 05:47:01;;;;;;;11.45;6.30;;;;;;;27.78;46.14;94700.69;4987481;28;20552;-61
2022/07/27 05:49:26;;;;;;;17.02;6.30;;;;;;;27.82;45.85;94690.09;5005852;28;20038;-62
2022/07/27 05:51:52;;;;;;;12.40;5.80;;;;;;;27.89;45.30;94694.13;4991202;28;20554;-60
2022/07/27 05:54:18;;;;;;;11.15;5.97;;;;;;;27.96;45.80;94690.69;5007864;28;20064;-60
2022/07/27 05:56:44;;;;;;;13.45;6.80;;;;;;;28.00;45.56;94688.31;4987443;28;20050;-61
2022/07/27 05:59:09;;;;;;;11.18;6.43;;;;;;;28.12;45.15;94687.44;4988187;28;20038;-60
2022/07/27 06:01:35;;;;;;;14.45;6.30;;;;;;;28.23;45.04;94700.78;4995688;28;20042;-61
2022/07/27 06:04:01;;;;;;;11.50;6.53;;;;;;;28.18;45.63;94685.25;4988170;28;20038;-63
2022/07/27 06:09:11;;;;;;;10.95;5.55;;;;;;;28.41;44.85;94694.22;5006988;28;20100;-65
2022/07/27 06:11:36;;;;;;;10.80;6.22;;;;;;;28.54;44.79;94688.53;5007197;28;20034;-62
2022/07/27 06:14:02;;;;;;;8.57;5.43;;;;;;;28.50;44.72;94685.41;5007608;28;20492;-63
2022/07/27 06:16:27;;;;;;;16.10;5.78;;;;;;;28.57;44.77;94695.69;5004000;28;20078;-64
2022/07/27 06:18:53;;;;;;;9.82;6.47;;;;;;;28.59;44.76;94693.81;4995672;28;20038;-62
2022/07/27 06:21:18;;;;;;;11.52;5.90;;;;;;;28.60;44.98;94689.06;4997281;28;20038;-61
2022/07/27 06:23:47;;;;;;;11.48;6.13;;;;;;;28.71;44.76;94688.72;5006275;28;20116;-61
2022/07/27 06:26:12;;;;;;;11.65;6.07;;;;;;;28.80;44.53;94686.88;5005709;28;20034;-60
2022/07/27 06:28:38;;;;;;;11.00;6.00;;;;;;;28.72;44.07;94686.13;5002950;28;20065;-62
2022/07/27 06:31:03;;;;;;;9.00;6.35;;;;;;;28.81;44.54;94691.06;4989841;28;20046;-64
2022/07/27 06:33:30;;;;;;;8.77;6.30;;;;;;;28.97;44.30;94700.75;4996044;28;20033;-64
2022/07/27 06:35:56;;;;;;;9.73;5.93;;;;;;;29.03;43.56;94698.53;5000580;28;20125;-60
2022/07/27 06:38:23;;;;;;;10.32;5.82;;;;;;;29.21;43.58;94702.91;4987758;28;20065;-57
2022/07/27 06:40:51;;;;;;;8.13;5.90;;;;;;;29.26;43.47;94696.47;4986760;28;20686;-65
2022/07/27 06:43:20;;;;;;;10.35;6.13;;;;;;;29.35;42.54;94709.66;4989534;28;20417;-64
2022/07/27 06:45:46;;;;;;;10.50;6.43;;;;;;;29.39;42.93;94701.75;4989261;28;20026;-63
2022/07/27 06:48:12;;;;;;;9.82;5.93;;;;;;;29.47;42.90;94700.41;5010361;28;20426;-61
2022/07/27 06:50:37;;;;;;;10.38;6.60;;;;;;;29.55;42.38;94708.66;4987407;28;20072;-62
2022/07/27 06:53:03;;;;;;;10.77;6.63;;;;;;;29.56;42.32;94699.09;4989035;28;20128;-61
2022/07/27 06:55:28;;;;;;;9.40;6.18;;;;;;;29.52;42.90;94696.00;4987166;28;20026;-56
2022/07/27 06:57:54;;;;;;;10.07;6.07;;;;;;;29.36;42.50;94669.84;4986138;28;20039;-57
2022/07/27 07:00:19;;;;;;;9.20;6.20;;;;;;;29.46;42.24;94684.47;4991701;28;20050;-60
2022/07/27 07:02:57;;;;;;;9.63;6.32;;;;;;;29.51;42.45;94689.03;4993708;28;20057;-63
2022/07/27 07:05:23;;;;;;;11.05;6.13;;;;;;;29.45;42.61;94702.28;5009801;28;20565;-61
2022/07/27 07:07:48;;;;;;;10.60;6.28;;;;;;;29.35;42.56;94684.88;5007930;28;20038;-62
2022/07/27 07:10:14;;;;;;;10.63;6.50;;;;;;;29.26;42.81;94688.94;4998407;28;20046;-62
2022/07/27 07:12:40;;;;;;;8.68;6.15;;;;;;;29.15;42.92;94672.09;4999427;28;20573;-61
2022/07/27 07:15:06;;;;;;;11.90;6.78;;;;;;;29.11;43.46;94682.75;5005972;28;20037;-61
2022/07/27 07:17:32;;;;;;;9.20;6.25;;;;;;;29.06;42.78;94686.44;5003296;28;20045;-61
2022/07/27 07:19:57;;;;;;;11.55;6.43;;;;;;;29.00;43.01;94683.16;4986537;28;20046;-58
2022/07/27 07:22:24;;;;;;;13.43;6.50;;;;;;;28.87;43.63;94677.13;5005178;28;20041;-62
2022/07/27 07:24:50;;;;;;;10.38;6.80;;;;;;;28.89;43.32;94683.56;5006532;28;20042;-62
2022/07/27 07:27:18;;;;;;;9.25;6.20;;;;;;;28.78;43.94;94678.44;5005561;28;20046;-61
2022/07/27 07:29:43;;;;;;;7.80;6.60;;;;;;;28.72;43.61;94675.13;5001882;28;20424;-62
2022/07/27 07:32:09;;;;;;;10.95;6.50;;;;;;;28.65;43.52;94668.91;5005863;28;20026;-62
2022/07/27 07:34:35;;;;;;;8.65;6.50;;;;;;;28.69;43.80;94674.81;5006579;28;20064;-69
2022/07/27 07:37:00;;;;;;;8.60;5.85;;;;;;;28.64;44.26;94678.44;5005276;28;20034;-58
2022/07/27 07:39:26;;;;;;;12.05;6.95;;;;;;;28.52;43.61;94671.84;5006550;28;20045;-59
2022/07/27 07:41:52;;;;;;;8.80;6.75;;;;;;;28.55;43.67;94677.00;5005107;28;20421;-61
2022/07/27 07:44:18;;;;;;;11.57;6.63;;;;;;;28.52;43.74;94672.59;5006082;28;20061;-61
2022/07/27 07:46:43;;;;;;;11.88;7.25;;;;;;;28.49;44.37;94668.19;5005702;28;20034;-63
2022/07/27 07:49:09;;;;;;;9.50;6.45;;;;;;;28.44;44.06;94671.13;4993584;28;20038;-65
2022/07/27 07:51:34;;;;;;;9.38;6.40;;;;;;;28.45;44.04;94678.09;4993032;28;20855;-63
2022/07/27 07:54:00;;;;;;;9.40;6.97;;;;;;;28.39;44.18;94675.53;4991206;28;20765;-64
2022/07/27 07:56:26;;;;;;;12.13;7.13;;;;;;;28.39;44.12;94686.50;4994930;28;20429;-63
2022/07/27 07:58:51;;;;;;;8.13;6.40;;;;;;;28.36;44.35;94681.41;4992101;28;20036;-65
2022/07/27 08:01:17;;;;;;;12.07;7.30;;;;;;;28.29;44.29;94679.38;4999174;28;20038;-64
2022/07/27 08:03:42;;;;;;;9.40;6.90;;;;;;;28.32;44.83;94686.50;5021856;28;20025;-64
2022/07/27 08:06:08;;;;;;;8.65;6.50;;;;;;;28.30;44.40;94676.06;5006144;28;20390;-63
2022/07/27 08:09:04;;;;;;;10.48;6.60;;;;;;;28.38;44.69;94689.81;5006438;28;20030;-68
2022/07/27 08:11:30;;;;;;;10.98;7.35;;;;;;;28.32;44.68;94681.75;4998612;28;20046;-65
2022/07/27 08:13:55;;;;;;;8.63;6.78;;;;;;;28.36;44.42;94681.41;5008293;28;20095;-64
2022/07/27 08:16:21;;;;;;;9.57;6.97;;;;;;;28.34;44.93;94683.94;5006841;28;20480;-65
2022/07/27 08:18:46;;;;;;;9.77;7.22;;;;;;;28.26;44.61;94677.72;4995480;28;20061;-66
2022/07/27 08:21:12;;;;;;;10.00;7.25;;;;;;;28.25;44.85;94670.75;4987812;28;20037;-66
2022/07/27 08:23:38;;;;;;;9.63;7.30;;;;;;;28.23;45.07;94673.34;5000495;28;20069;-61
2022/07/27 08:26:03;;;;;;;9.40;7.60;;;;;;;28.14;45.04;94668.38;5005671;28;20116;-65
2022/07/27 08:28:29;;;;;;;10.65;6.88;;;;;;;28.16;44.98;94674.09;5005549;28;20128;-60
2022/07/27 08:30:54;;;;;;;11.48;7.68;;;;;;;28.14;45.39;94667.66;4996358;28;20047;-62
2022/07/27 08:33:20;;;;;;;8.77;7.10;;;;;;;28.13;45.26;94669.69;4994184;28;20468;-63
2022/07/27 08:35:46;;;;;;;8.68;7.28;;;;;;;28.07;45.45;94660.88;5007185;28;20133;-62
2022/07/27 08:38:12;;;;;;;11.13;7.95;;;;;;;28.04;45.73;94656.47;5006121;28;20073;-61
2022/07/27 08:40:37;;;;;;;9.85;7.60;;;;;;;28.03;45.18;94643.28;5006145;28;20476;-65
2022/07/27 08:43:03;;;;;;;8.80;7.70;;;;;;;28.06;45.71;94653.91;5004330;28;20049;-65
2022/07/27 08:45:29;;;;;;;9.70;7.45;;;;;;;28.00;45.56;94649.88;5006468;28;20041;-65
2022/07/27 08:47:55;;;;;;;9.98;6.90;;;;;;;28.02;45.45;94653.53;5036784;28;20048;-65
2022/07/27 08:50:23;;;;;;;10.82;7.40;;;;;;;28.03;45.92;94655.00;5035875;28;20050;-59
2022/07/27 08:53:04;;;;;;;9.98;8.30;;;;;;;28.05;45.42;94657.91;4986429;28;20151;-68
2022/07/27 08:55:31;;;;;;;10.77;7.40;;;;;;;28.05;45.68;94652.44;5006457;28;20406;-58
2022/07/27 08:57:56;;;;;;;10.60;7.78;;;;;;;27.98;45.73;94636.69;5006160;28;20034;-61
2022/07/27 09:00:22;;;;;;;12.32;8.57;;;;;;;28.01;45.80;94641.09;5003791;28;20026;-62
2022/07/27 09:02:48;;;;;;;12.30;8.13;;;;;;;28.10;46.05;94643.31;5004878;28;20460;-67
2022/07/27 09:05:13;;;;;;;9.27;7.63;;;;;;;28.13;45.97;94642.22;5006017;28;20547;-64
2022/07/27 09:07:39;;;;;;;10.38;7.43;;;;;;;28.10;45.92;94624.09;5006325;28;20018;-65
2022/07/27 09:10:05;;;;;;;10.32;7.60;;;;;;;28.26;46.06;94639.28;4994709;28;20595;-62
2022/07/27 09:12:31;;;;;;;9.38;7.85;;;;;;;28.34;45.83;94626.25;4985134;28;20120;-66
2022/07/27 09:15:10;;;;;;;11.07;7.88;;;;;;;28.45;45.57;94634.13;4985381;28;20045;-57
2022/07/27 09:17:36;;;;;;;10.55;7.70;;;;;;;28.53;44.96;94634.84;4986639;28;20658;-62
2022/07/27 09:59:45;;;;;;;9.55;7.80;;;;;;;28.37;45.51;94616.91;3429229;28;20045;-60
2022/07/27 10:02:12;;;;;;;9.32;7.78;;;;;;;28.33;45.37;94619.31;4981041;28;20055;-62
2022/07/27 10:04:37;;;;;;;10.65;8.10;;;;;;;28.23;45.92;94606.69;4986967;28;20034;-62
2022/07/27 10:07:03;;;;;;;9.93;8.45;;;;;;;28.22;45.47;94610.72;4982789;28;20205;-60
2022/07/27 10:09:29;;;;;;;9.82;7.85;;;;;;;28.20;45.91;94603.03;4981722;28;20027;-58
2022/07/27 10:11:56;;;;;;;9.60;7.68;;;;;;;28.14;45.98;94594.25;4987218;28;20137;-58
2022/07/27 10:14:21;;;;;;;10.38;7.63;;;;;;;28.08;45.82;94601.91;4987323;28;20057;-66
2022/07/27 10:16:50;;;;;;;10.10;7.68;;;;;;;28.06;46.26;94599.00;4986651;28;20088;-59
2022/07/27 10:19:28;;;;;;;9.48;7.70;;;;;;;28.16;46.29;94597.19;4970064;28;20043;-61
2022/07/27 10:21:54;;;;;;;10.07;7.60;;;;;;;28.10;45.97;94593.91;4980008;28;20783;-67
2022/07/27 10:24:24;;;;;;;9.45;7.53;;;;;;;28.12;46.26;94605.06;4987181;28;20059;-72
2022/07/27 10:26:49;;;;;;;8.95;7.70;;;;;;;28.03;45.88;94597.34;4974521;28;20039;-69
2022/07/27 10:29:19;;;;;;;9.65;7.35;;;;;;;28.03;45.99;94599.38;4970356;28;20049;-64
2022/07/27 10:31:51;;;;;;;9.25;7.18;;;;;;;27.94;46.48;94592.41;4967184;28;20027;-62
2022/07/27 10:34:37;;;;;;;9.43;7.88;;;;;;;27.93;46.07;94595.69;4967618;28;20047;-65
2022/07/27 10:37:16;;;;;;;7.80;7.00;;;;;;;27.80;46.60;94580.16;4952767;28;20043;-64
2022/07/27 10:39:43;;;;;;;9.48;7.63;;;;;;;27.87;46.29;94587.63;4969086;28;20046;-63
2022/07/27 10:42:29;;;;;;;8.38;7.38;;;;;;;27.84;46.34;94588.00;4965817;28;20117;-65
2022/07/27 10:45:03;;;;;;;8.02;7.07;;;;;;;27.84;46.11;94577.75;4968941;28;20034;-61
2022/07/27 10:47:34;;;;;;;8.80;7.43;;;;;;;27.81;46.67;94572.63;4965560;28;20096;-61
2022/07/27 10:50:14;;;;;;;10.20;7.00;;;;;;;27.87;46.58;94586.91;4966817;28;20433;-66
2022/07/27 10:52:44;;;;;;;8.57;6.97;;;;;;;27.73;46.88;94568.41;4966250;28;20046;-58
2022/07/27 10:55:28;;;;;;;;;;;;;;;27.69;46.69;94577.03;4979541;28;20125;-64
2022/07/27 10:57:57;;;;;;;9.45;7.07;;;;;;;27.58;47.05;94565.66;5111088;23;19924;-64
2022/07/27 11:00:47;;;;;;;8.88;7.50;;;;;;;27.59;47.13;94567.13;5059680;28;20526;-65
2022/07/27 11:03:20;;;;;;;8.48;7.40;;;;;;;27.45;47.36;94563.06;5055848;28;20090;-63
2022/07/27 11:06:24;;;;;;;9.27;7.47;;;;;;;27.31;47.26;94567.28;5063633;28;20017;-63
2022/07/27 11:08:50;;;;;;;9.82;7.43;;;;;;;27.28;47.21;94562.88;4945376;28;20125;-64
2022/07/27 11:11:20;;;;;;;9.35;7.43;;;;;;;27.20;47.24;94553.88;4963686;28;20776;-64
2022/07/27 11:13:49;;;;;;;8.20;6.93;;;;;;;27.12;48.00;94553.16;5012515;28;20406;-64
2022/07/27 11:16:15;;;;;;;7.30;6.50;;;;;;;27.03;47.97;94561.88;5064671;28;20033;-64
2022/07/27 11:18:42;;;;;;;9.13;7.55;;;;;;;27.03;48.27;94552.94;5065100;28;20040;-55
2022/07/27 11:21:20;;;;;;;8.20;7.18;;;;;;;26.98;48.68;94543.63;5041285;28;20909;-56
2022/07/27 11:23:47;;;;;;;8.18;7.00;;;;;;;26.90;48.65;94548.31;5046488;28;20086;-57
2022/07/27 11:26:12;;;;;;;8.85;7.43;;;;;;;26.88;48.69;94545.38;5063769;28;20039;-56
2022/07/27 11:28:38;;;;;;;9.10;7.25;;;;;;;26.83;48.87;94540.78;5046630;28;20028;-53
2022/07/27 11:31:04;;;;;;;8.57;7.25;;;;;;;26.80;49.18;94538.41;5064702;28;20253;-58
2022/07/27 11:33:30;;;;;;;9.82;7.05;;;;;;;26.75;49.04;94542.03;5064143;28;20025;-56
2022/07/27 11:36:04;;;;;;;10.10;7.47;;;;;;;26.72;49.09;94539.66;5064251;28;20040;-55
2022/07/27 11:38:29;;;;;;;8.40;6.68;;;;;;;26.67;49.34;94535.09;5045688;28;20529;-59
2022/07/27 11:40:55;;;;;;;9.13;7.05;;;;;;;26.64;49.46;94525.22;5046577;28;20037;-58
2022/07/27 11:43:37;;;;;;;10.15;7.18;;;;;;;26.56;49.27;94529.91;5064506;28;20060;-58
2022/07/27 11:46:16;;;;;;;8.18;7.00;;;;;;;26.53;49.16;94528.25;5064666;28;20465;-58
2022/07/27 11:48:50;;;;;;;8.25;6.90;;;;;;;26.49;49.69;94522.41;5046736;28;20028;-59
2022/07/27 11:51:18;;;;;;;8.18;6.82;;;;;;;26.46;49.58;94520.75;5064556;28;20566;-54
2022/07/27 11:53:44;;;;;;;8.55;7.15;;;;;;;26.43;49.46;94510.88;5043355;28;20571;-59
2022/07/27 11:56:09;;;;;;;8.07;6.97;;;;;;;26.39;49.40;94521.44;5058136;28;20047;-57
2022/07/27 11:59:02;;;;;;;8.07;6.57;;;;;;;26.36;49.15;94517.03;5063715;28;20052;-58
2022/07/27 12:01:34;;;;;;;7.93;6.78;;;;;;;26.32;49.29;94511.16;5036375;28;20048;-58
2022/07/27 12:04:11;;;;;;;8.85;7.55;;;;;;;26.32;49.22;94513.91;5064583;28;20033;-58
2022/07/27 12:06:37;;;;;;;8.40;6.70;;;;;;;26.28;49.66;94511.53;5058378;28;20033;-58
2022/07/27 12:09:04;;;;;;;7.82;6.85;;;;;;;26.28;49.29;94508.78;5056176;28;20686;-54
2022/07/27 12:11:43;;;;;;;7.95;6.93;;;;;;;26.27;49.55;94503.09;5063449;28;20047;-52
2022/07/27 12:14:12;;;;;;;9.20;6.57;;;;;;;26.25;49.22;94495.44;5064521;28;20096;-58
2022/07/27 12:16:37;;;;;;;8.65;6.63;;;;;;;26.24;49.38;94499.44;5063632;28;20037;-57
2022/07/27 12:19:03;;;;;;;7.40;6.53;;;;;;;26.23;49.39;94497.97;5064213;28;20032;-57
2022/07/27 12:21:28;;;;;;;7.72;6.93;;;;;;;26.20;49.13;94488.09;5053090;28;20086;-56
2022/07/27 12:23:54;;;;;;;8.10;6.38;;;;;;;26.16;48.95;94482.25;5046004;28;20044;-58
2022/07/27 12:26:20;;;;;;;7.53;6.38;;;;;;;26.15;49.30;94491.72;5058913;28;20044;-54
2022/07/27 12:28:45;;;;;;;9.60;7.43;;;;;;;26.15;49.29;94491.72;5064009;28;20537;-55
2022/07/27 12:31:17;;;;;;;8.40;6.32;;;;;;;26.15;49.09;94486.25;5045828;28;20036;-57
2022/07/27 12:33:42;;;;;;;8.82;6.65;;;;;;;26.13;49.36;94480.59;5036217;28;20033;-58
2022/07/27 12:36:08;;;;;;;8.38;6.75;;;;;;;26.14;49.29;94481.31;5049678;28;20040;-55
2022/07/27 12:38:49;;;;;;;7.80;6.55;;;;;;;26.09;49.09;94477.47;5045531;28;20041;-57
2022/07/27 12:41:25;;;;;;;8.02;6.82;;;;;;;26.10;49.07;94476.19;5045676;28;20036;-55
2022/07/27 12:44:07;;;;;;;8.15;6.88;;;;;;;26.08;49.29;94481.47;5064603;28;20411;-55
2022/07/27 12:46:32;;;;;;;7.55;6.22;;;;;;;26.08;49.17;94475.25;5036715;28;20521;-57
2022/07/27 12:48:58;;;;;;;7.93;6.35;;;;;;;26.07;49.09;94471.81;5063918;28;20037;-57
2022/07/27 12:51:23;;;;;;;9.25;6.55;;;;;;;26.07;49.21;94458.13;5063099;28;20040;-59
2022/07/27 12:53:49;;;;;;;8.68;6.95;;;;;;;26.05;49.23;94457.94;5055231;28;20025;-57
2022/07/27 12:56:14;;;;;;;7.47;6.40;;;;;;;26.05;49.14;94455.19;5060156;28;20037;-58
2022/07/27 12:58:56;;;;;;;8.38;6.70;;;;;;;26.01;49.15;94459.56;5062901;28;20875;-58
2022/07/27 13:01:22;;;;;;;7.75;6.53;;;;;;;26.02;49.38;94445.34;5041855;28;20061;-57
2022/07/27 13:03:47;;;;;;;8.80;7.07;;;;;;;26.03;49.09;94446.78;5053280;28;20039;-58
2022/07/27 13:06:13;;;;;;;7.25;6.07;;;;;;;26.03;49.56;94446.78;5030116;28;20167;-54
2022/07/27 13:08:39;;;;;;;7.68;6.70;;;;;;;26.03;49.71;94440.59;5058323;28;20055;-60
2022/07/27 13:11:04;;;;;;;7.53;6.32;;;;;;;26.04;49.58;94448.25;5050900;28;20173;-56
2022/07/27 13:13:30;;;;;;;8.60;6.20;;;;;;;26.06;49.67;94448.44;5063984;28;20037;-57
2022/07/27 13:15:55;;;;;;;7.00;6.07;;;;;;;26.09;49.78;94444.63;5044395;28;20056;-59
2022/07/27 13:18:21;;;;;;;8.15;6.53;;;;;;;26.14;49.60;94457.41;5051084;28;20130;-60
2022/07/27 13:20:46;;;;;;;6.97;5.82;;;;;;;26.18;49.24;94444.09;5064524;28;20037;-56
2022/07/27 13:23:12;;;;;;;7.45;6.55;;;;;;;26.25;49.19;94440.69;5067426;28;20507;-58
2022/07/27 13:25:37;;;;;;;8.13;6.60;;;;;;;26.30;49.29;94428.84;5052750;28;20033;-57
2022/07/27 13:28:03;;;;;;;8.25;6.82;;;;;;;26.36;49.11;94429.44;5042080;28;20171;-56
2022/07/27 13:30:29;;;;;;;7.97;6.88;;;;;;;26.41;48.91;94425.78;5066242;28;20129;-56
2022/07/27 13:32:54;;;;;;;9.05;6.55;;;;;;;26.47;48.72;94431.81;5067021;28;20523;-53
2022/07/27 13:35:20;;;;;;;8.70;6.88;;;;;;;26.58;48.29;94423.28;5048586;28;20053;-58
2022/07/27 13:37:45;;;;;;;7.38;6.03;;;;;;;26.64;48.48;94421.13;5041159;28;20086;-59
2022/07/27 13:40:11;;;;;;;8.20;6.55;;;;;;;26.68;48.08;94416.75;5047523;28;20045;-58
2022/07/27 13:42:37;;;;;;;7.80;6.32;;;;;;;26.73;48.05;94417.84;5041023;28;20101;-58
2022/07/27 13:45:03;;;;;;;8.20;6.50;;;;;;;26.80;47.84;94418.59;5067385;28;20037;-57
2022/07/27 13:47:29;;;;;;;8.02;6.55;;;;;;;26.90;47.50;94421.53;5066550;28;20078;-59
2022/07/27 13:49:54;;;;;;;7.68;6.18;;;;;;;26.89;47.65;94423.56;5067211;28;20060;-59
2022/07/27 13:52:20;;;;;;;7.38;6.53;;;;;;;26.93;47.52;94421.16;5065546;28;20029;-59
2022/07/27 13:54:45;;;;;;;7.65;6.32;;;;;;;26.99;46.93;94418.97;5067468;28;20042;-59
2022/07/27 13:57:11;;;;;;;7.13;6.07;;;;;;;26.99;47.24;94418.25;5066466;28;20442;-58
2022/07/27 13:59:36;;;;;;;7.60;6.30;;;;;;;27.01;47.10;94415.69;5067629;28;20044;-55
2022/07/27 14:02:02;;;;;;;7.65;6.75;;;;;;;27.05;46.90;94421.56;5064105;28;20041;-59
2022/07/27 14:04:27;;;;;;;8.18;6.80;;;;;;;27.08;46.76;94415.69;5067318;28;20123;-56
2022/07/27 14:06:53;;;;;;;7.88;6.50;;;;;;;27.10;46.55;94410.41;5066275;28;20047;-57
2022/07/27 14:09:18;;;;;;;9.35;7.25;;;;;;;27.09;46.63;94400.72;5066794;28;20082;-57
2022/07/27 14:11:44;;;;;;;7.10;5.97;;;;;;;27.14;46.10;94408.03;5065840;28;20040;-58
2022/07/27 14:14:09;;;;;;;8.40;6.50;;;;;;;27.15;46.27;94406.75;5066627;28;20037;-58
2022/07/27 14:16:35;;;;;;;7.95;6.43;;;;;;;27.14;46.26;94408.03;5047850;28;20106;-57
2022/07/27 14:19:02;;;;;;;7.75;6.55;;;;;;;27.16;46.61;94415.69;5066339;28;20078;-58
2022/07/27 14:21:27;;;;;;;7.53;6.50;;;;;;;27.18;46.02;94419.38;5054137;28;20064;-58
2022/07/27 14:23:52;;;;;;;7.30;6.57;;;;;;;27.25;45.96;94419.38;5061460;28;20052;-56
2022/07/27 14:26:18;;;;;;;7.35;6.35;;;;;;;27.27;45.79;94427.03;5055928;28;20124;-56
2022/07/27 14:28:43;;;;;;;7.45;6.40;;;;;;;27.32;45.42;94417.88;5060611;28;20029;-56
2022/07/27 14:31:09;;;;;;;7.75;6.43;;;;;;;27.33;45.82;94428.31;5052393;28;20032;-57
2022/07/27 14:33:35;;;;;;;8.48;6.75;;;;;;;27.33;45.27;94430.34;5059766;28;20036;-56
2022/07/27 14:36:01;;;;;;;7.00;6.30;;;;;;;27.34;45.20;94437.28;5051263;28;20072;-58
2022/07/27 14:38:26;;;;;;;7.90;6.45;;;;;;;27.42;45.30;94427.03;5046671;28;20080;-58
2022/07/27 14:40:52;;;;;;;7.13;6.30;;;;;;;27.33;45.21;94414.59;5064589;28;20037;-58
2022/07/27 14:43:18;;;;;;;8.20;6.70;;;;;;;27.37;45.51;94420.47;5064583;28;20123;-58
2022/07/27 14:45:43;;;;;;;7.40;6.05;;;;;;;27.35;45.57;94428.50;5065145;28;20105;-58
2022/07/27 14:48:09;;;;;;;8.05;6.20;;;;;;;27.36;45.61;94431.97;5054670;28;20051;-57
2022/07/27 14:50:35;;;;;;;7.28;5.93;;;;;;;27.42;45.47;94435.25;5044402;28;20129;-57
2022/07/27 14:53:01;;;;;;;8.07;6.50;;;;;;;27.50;45.56;94433.28;5043568;28;20065;-57
2022/07/27 14:55:26;;;;;;;7.18;6.28;;;;;;;27.59;45.46;94440.94;5044965;28;20495;-56
2022/07/27 14:57:52;;;;;;;7.50;6.40;;;;;;;27.62;45.44;94445.31;5053577;28;20918;-58
2022/07/27 15:00:18;;;;;;;6.85;6.15;;;;;;;27.60;44.97;94447.91;5058949;28;20721;-57
2022/07/27 15:02:43;;;;;;;7.00;5.57;;;;;;;27.66;45.28;94453.94;5062629;28;20028;-56
2022/07/27 15:05:09;;;;;;;7.40;6.00;;;;;;;27.66;44.80;94462.16;5063464;28;20466;-56
2022/07/27 15:07:35;;;;;;;6.85;6.00;;;;;;;27.67;45.05;94466.34;5063056;28;20035;-55
2022/07/27 15:10:01;;;;;;;7.53;6.15;;;;;;;27.65;44.90;94466.91;5064516;28;20064;-60
2022/07/27 15:12:27;;;;;;;7.00;6.20;;;;;;;27.72;44.52;94465.44;5060203;28;20526;-58
2022/07/27 15:14:53;;;;;;;6.88;5.68;;;;;;;27.72;44.41;94454.47;5044798;28;20052;-57
2022/07/27 15:17:19;;;;;;;6.80;6.00;;;;;;;27.73;44.72;94461.41;5045216;28;20041;-58
2022/07/27 15:19:45;;;;;;;8.32;6.25;;;;;;;27.77;44.10;94457.00;5058945;28;20044;-58
2022/07/27 15:22:10;;;;;;;9.02;6.68;;;;;;;27.74;44.87;94460.84;5057527;28;20429;-56
2022/07/27 15:24:36;;;;;;;7.53;6.00;;;;;;;27.84;44.35;94462.47;5045046;28;20032;-52
2022/07/27 15:27:01;;;;;;;7.00;5.95;;;;;;;27.81;45.15;94462.88;5060752;28;20116;-58
2022/07/27 15:29:27;;;;;;;7.13;6.18;;;;;;;27.82;44.30;94476.03;5054171;28;20033;-56
2022/07/27 15:31:53;;;;;;;6.90;6.07;;;;;;;27.85;44.79;94466.69;5051983;28;20087;-57
2022/07/27 15:34:18;;;;;;;6.50;5.57;;;;;;;27.80;44.52;94466.88;5043099;28;20059;-57
2022/07/27 15:36:43;;;;;;;6.50;5.80;;;;;;;27.81;44.78;94469.06;5060589;28;20415;-54